createdAt,value
2017-11-04T00:01:18.990Z,35.30
2017-11-04T00:03:46.620Z,42.07
2017-11-04T00:06:14.203Z,46.33
2017-11-04T00:08:42.664Z,35.57
2017-11-04T00:11:10.324Z,44.60
2017-11-04T00:13:37.954Z,44.77
2017-11-04T00:16:05.563Z,37.47
2017-11-04T00:18:33.917Z,36.63
2017-11-04T00:21:01.537Z,59.33
2017-11-04T00:23:29.124Z,45.80
2017-11-04T00:25:56.733Z,44.93
2017-11-04T00:28:25.089Z,47.73
2017-11-04T00:30:53.464Z,51.23
2017-11-04T00:33:21.047Z,46.63
2017-11-04T00:35:49.516Z,44.83
2017-11-04T00:38:17.104Z,48.00
2017-11-04T00:40:45.504Z,45.27
2017-11-04T00:43:13.100Z,46.93
2017-11-04T00:45:40.779Z,43.50
2017-11-04T00:48:09.267Z,40.63
2017-11-04T00:50:38.370Z,37.00
2017-11-04T00:53:06.760Z,50.03
2017-11-04T00:55:35.121Z,50.93
2017-11-04T00:58:02.736Z,41.37
2017-11-04T01:00:30.960Z,47.37
2017-11-04T01:02:58.576Z,49.13
2017-11-04T01:05:26.165Z,45.60
2017-11-04T01:07:53.846Z,39.73
2017-11-04T01:10:21.433Z,46.60
2017-11-04T01:12:49.817Z,45.47
2017-11-04T01:15:18.268Z,40.67
2017-11-04T01:17:45.928Z,41.60
2017-11-04T01:20:14.288Z,40.20
2017-11-04T01:22:41.880Z,43.43
2017-11-04T01:25:09.533Z,46.27
2017-11-04T01:27:37.889Z,51.20
2017-11-04T01:30:05.500Z,42.50
2017-11-04T01:32:33.957Z,46.03
2017-11-04T01:35:01.573Z,40.23
2017-11-04T01:37:29.173Z,56.00
2017-11-04T01:39:56.849Z,44.10
2017-11-04T01:42:25.944Z,39.87
2017-11-04T01:44:53.604Z,51.50
2017-11-04T01:47:21.268Z,54.10
2017-11-04T01:49:48.927Z,52.80
2017-11-04T01:52:16.516Z,46.60
2017-11-04T01:54:44.893Z,49.60
2017-11-04T01:57:13.356Z,51.00
2017-11-04T01:59:41.020Z,44.17
2017-11-04T02:02:09.393Z,43.73
2017-11-04T02:04:36.980Z,48.07
2017-11-04T02:07:05.361Z,43.00
2017-11-04T02:09:33.815Z,50.03
2017-11-04T02:12:01.438Z,43.87
2017-11-04T02:14:29.025Z,50.23
2017-11-04T02:16:56.641Z,46.23
2017-11-04T02:19:24.265Z,47.97
2017-11-04T02:21:51.880Z,48.47
2017-11-04T02:24:19.496Z,52.73
2017-11-04T02:26:47.894Z,47.53
2017-11-04T02:29:16.254Z,52.90
2017-11-04T02:31:43.920Z,41.93
2017-11-04T02:34:12.392Z,37.63
2017-11-04T02:36:40.061Z,43.43
2017-11-04T02:39:07.657Z,46.37
2017-11-04T02:41:35.298Z,47.97
2017-11-04T02:44:03.652Z,46.13
2017-11-04T02:46:31.249Z,45.07
2017-11-04T02:48:59.651Z,45.07
2017-11-04T02:51:27.240Z,48.27
2017-11-04T02:53:54.933Z,38.07
2017-11-04T02:56:22.524Z,43.67
2017-11-04T02:58:50.164Z,43.50
2017-11-04T03:01:18.636Z,53.10
2017-11-04T03:03:46.254Z,44.17
2017-11-04T03:06:13.853Z,52.63
2017-11-04T03:08:41.525Z,39.93
2017-11-04T03:11:09.181Z,47.03
2017-11-04T03:13:36.854Z,48.97
2017-11-04T03:16:04.450Z,41.40
2017-11-04T03:18:32.074Z,48.77
2017-11-04T03:20:59.737Z,45.03
2017-11-04T03:23:28.121Z,39.83
2017-11-04T03:25:55.781Z,49.83
2017-11-04T03:28:23.441Z,49.03
2017-11-04T03:30:51.819Z,40.50
2017-11-04T03:33:19.480Z,45.50
2017-11-04T03:35:47.149Z,44.13
2017-11-04T03:38:14.736Z,47.40
2017-11-04T03:40:43.121Z,50.70
2017-11-04T03:43:10.711Z,43.80
2017-11-04T03:45:38.319Z,55.07
2017-11-04T03:48:05.914Z,46.50
2017-11-04T03:50:33.538Z,51.20
2017-11-04T03:53:01.201Z,52.57
2017-11-04T03:55:28.821Z,52.73
2017-11-04T03:57:56.431Z,51.20
2017-11-04T04:00:24.909Z,39.27
2017-11-04T04:02:52.564Z,41.57
2017-11-04T04:05:20.161Z,43.40
2017-11-04T04:07:47.780Z,50.00
2017-11-04T04:10:16.886Z,57.00
2017-11-04T04:12:44.508Z,47.63
2017-11-04T04:15:12.105Z,49.83
2017-11-04T04:17:39.718Z,48.10
2017-11-04T04:20:07.321Z,45.37
2017-11-04T04:22:34.943Z,50.30
2017-11-04T04:25:02.561Z,44.70
2017-11-04T04:27:30.217Z,48.67
2017-11-04T04:29:57.881Z,62.33
2017-11-04T04:32:25.504Z,48.90
2017-11-04T04:34:53.214Z,52.53
2017-11-04T04:37:21.571Z,58.27
2017-11-04T04:39:49.181Z,54.23
2017-11-04T04:42:17.544Z,57.93
2017-11-04T04:44:46.014Z,58.27
2017-11-04T04:47:13.604Z,47.53
2017-11-04T04:49:41.989Z,59.97
2017-11-04T04:52:09.586Z,54.47
2017-11-04T04:54:37.275Z,57.40
2017-11-04T04:57:04.865Z,53.27
2017-11-04T04:59:33.325Z,52.53
2017-11-04T05:02:00.988Z,52.03
2017-11-04T05:04:28.604Z,50.53
2017-11-04T05:06:56.198Z,61.23
2017-11-04T05:09:25.321Z,59.00
2017-11-04T05:11:53.690Z,64.70
2017-11-04T05:14:22.047Z,54.67
2017-11-04T05:16:49.728Z,57.40
2017-11-04T05:19:17.316Z,63.43
2017-11-04T05:21:46.640Z,51.90
2017-11-04T05:24:14.256Z,59.67
2017-11-04T05:26:41.916Z,58.83
2017-11-04T05:29:09.510Z,59.70
2017-11-04T05:31:37.125Z,60.13
2017-11-04T05:34:04.726Z,61.80
2017-11-04T05:36:33.108Z,60.20
2017-11-04T05:39:00.744Z,75.70
2017-11-04T05:41:28.362Z,56.57
2017-11-04T05:43:55.956Z,59.70
2017-11-04T05:46:25.085Z,63.43
2017-11-04T05:48:53.443Z,62.87
2017-11-04T05:51:21.062Z,74.10
2017-11-04T05:53:48.773Z,64.10
2017-11-04T05:56:16.433Z,67.47
2017-11-04T05:58:45.536Z,57.60
2017-11-04T06:01:13.150Z,62.93
2017-11-04T06:03:40.751Z,62.47
2017-11-04T06:06:08.369Z,73.27
2017-11-04T06:08:35.977Z,76.13
2017-11-04T06:11:04.362Z,59.40
2017-11-04T06:13:31.948Z,63.73
2017-11-04T06:15:59.537Z,58.67
2017-11-04T06:18:27.141Z,74.53
2017-11-04T06:20:55.497Z,69.03
2017-11-04T06:23:23.110Z,76.93
2017-11-04T06:25:50.743Z,74.70
2017-11-04T06:28:19.944Z,80.67
2017-11-04T06:30:48.305Z,79.83
2017-11-04T06:33:15.920Z,84.93
2017-11-04T06:35:43.545Z,70.93
2017-11-04T06:38:11.204Z,61.93
2017-11-04T06:40:39.552Z,67.70
2017-11-04T06:43:07.257Z,83.43
2017-11-04T06:45:34.917Z,62.90
2017-11-04T06:48:02.528Z,69.60
2017-11-04T06:50:30.136Z,74.27
2017-11-04T06:52:58.521Z,65.47
2017-11-04T06:55:27.620Z,67.37
2017-11-04T06:57:55.262Z,74.00
2017-11-04T07:00:22.936Z,76.53
2017-11-04T07:02:52.042Z,85.10
2017-11-04T07:05:19.662Z,67.47
2017-11-04T07:07:47.252Z,61.50
2017-11-04T07:10:14.920Z,67.83
2017-11-04T07:12:44.121Z,57.27
2017-11-04T07:15:12.497Z,54.13
2017-11-04T07:17:40.090Z,63.87
2017-11-04T07:20:08.485Z,73.40
2017-11-04T07:22:36.112Z,63.13
2017-11-04T07:25:03.728Z,61.17
2017-11-04T07:27:31.328Z,68.50
2017-11-04T07:29:59.706Z,62.00
2017-11-04T07:32:28.099Z,72.37
2017-11-04T07:34:56.481Z,70.10
2017-11-04T07:37:24.842Z,69.60
2017-11-04T07:39:52.453Z,59.97
2017-11-04T07:42:20.037Z,67.17
2017-11-04T07:44:47.620Z,58.80
2017-11-04T07:47:15.233Z,60.30
2017-11-04T07:49:42.861Z,73.67
2017-11-04T07:52:10.529Z,62.43
2017-11-04T07:54:38.897Z,61.27
2017-11-04T07:57:07.277Z,60.60
2017-11-04T07:59:34.872Z,61.67
2017-11-04T08:02:03.264Z,62.50
2017-11-04T08:04:30.889Z,64.43
2017-11-04T08:06:58.501Z,69.63
2017-11-04T08:09:26.089Z,86.53
2017-11-04T08:11:53.701Z,105.23
2017-11-04T08:14:21.295Z,144.40
2017-11-04T08:16:48.928Z,179.10
2017-11-04T08:19:16.553Z,95.53
2017-11-04T08:21:44.225Z,114.40
2017-11-04T08:24:11.836Z,107.77
2017-11-04T08:26:39.452Z,78.23
2017-11-04T08:29:07.932Z,73.17
2017-11-04T08:31:35.525Z,68.03
2017-11-04T08:34:03.248Z,64.93
2017-11-04T08:36:31.633Z,59.97
2017-11-04T08:38:59.297Z,53.97
2017-11-04T08:41:26.889Z,60.27
2017-11-04T08:43:54.516Z,57.33
2017-11-04T08:46:22.876Z,60.53
2017-11-04T08:48:50.496Z,53.47
2017-11-04T08:51:20.962Z,63.83
2017-11-04T08:53:48.606Z,51.67
2017-11-04T08:56:16.227Z,54.87
2017-11-04T08:58:44.593Z,57.63
2017-11-04T09:01:12.253Z,52.40
2017-11-04T09:03:40.633Z,54.60
2017-11-04T09:06:09.842Z,51.53
2017-11-04T09:08:38.199Z,55.77
2017-11-04T09:11:05.812Z,57.47
2017-11-04T09:13:33.432Z,53.33
2017-11-04T09:16:02.552Z,68.17
2017-11-04T09:18:30.904Z,52.90
2017-11-04T09:20:58.525Z,57.43
2017-11-04T09:23:26.141Z,45.57
2017-11-04T09:25:53.752Z,58.80
2017-11-04T09:28:21.345Z,52.33
2017-11-04T09:30:49.030Z,47.83
2017-11-04T09:33:16.694Z,63.03
2017-11-04T09:35:44.348Z,56.07
2017-11-04T09:38:11.970Z,54.07
2017-11-04T09:40:39.677Z,50.10
2017-11-04T09:43:07.349Z,46.47
2017-11-04T09:45:35.000Z,43.40
2017-11-04T09:48:02.664Z,43.67
2017-11-04T09:50:30.266Z,45.00
2017-11-04T09:52:57.993Z,46.73
2017-11-04T09:55:25.652Z,49.60
2017-11-04T09:57:53.260Z,46.87
2017-11-04T10:00:20.849Z,47.13
2017-11-04T10:02:48.466Z,49.33
2017-11-04T10:05:16.832Z,45.97
2017-11-04T10:07:45.192Z,78.53
2017-11-04T10:10:12.861Z,62.10
2017-11-04T10:12:40.519Z,46.80
2017-11-04T10:15:08.132Z,62.53
2017-11-04T10:17:35.754Z,48.53
2017-11-04T10:20:03.417Z,43.73
2017-11-04T10:22:31.013Z,49.83
2017-11-04T10:24:58.630Z,45.03
2017-11-04T10:27:26.225Z,45.30
2017-11-04T10:29:54.622Z,42.23
2017-11-04T10:32:22.225Z,50.87
2017-11-04T10:34:49.909Z,48.67
2017-11-04T10:37:17.564Z,48.73
2017-11-04T10:39:45.181Z,45.00
2017-11-04T10:42:12.765Z,46.27
2017-11-04T10:44:40.352Z,53.67
2017-11-04T10:47:08.021Z,47.87
2017-11-04T10:49:35.616Z,43.87
2017-11-04T10:52:03.233Z,45.00
2017-11-04T10:54:30.833Z,43.53
2017-11-04T10:56:58.440Z,40.67
2017-11-04T10:59:26.028Z,49.47
2017-11-04T11:01:53.645Z,47.33
2017-11-04T11:04:21.237Z,40.30
2017-11-04T11:06:48.905Z,49.63
2017-11-04T11:09:16.500Z,47.77
2017-11-04T11:11:44.884Z,48.10
2017-11-04T11:14:12.519Z,42.27
2017-11-04T11:16:40.140Z,39.80
2017-11-04T11:19:07.729Z,38.73
2017-11-04T11:21:35.395Z,41.47
2017-11-04T11:24:03.069Z,42.97
2017-11-04T11:26:30.730Z,35.27
2017-11-04T11:28:58.350Z,43.20
2017-11-04T11:31:25.949Z,42.50
2017-11-04T11:33:53.571Z,38.73
2017-11-04T11:36:21.277Z,43.60
2017-11-04T11:38:48.897Z,36.93
2017-11-04T11:41:16.495Z,46.23
2017-11-04T11:43:44.109Z,42.77
2017-11-04T11:46:11.723Z,40.73
2017-11-04T11:48:39.331Z,40.17
2017-11-04T11:51:06.916Z,36.63
2017-11-04T11:53:34.534Z,39.77
2017-11-04T11:56:02.887Z,37.30
2017-11-04T11:58:30.553Z,40.13
2017-11-04T12:00:58.945Z,45.30
2017-11-04T12:03:27.417Z,36.90
2017-11-04T12:05:55.071Z,35.60
2017-11-04T12:08:22.665Z,37.50
2017-11-04T12:10:51.126Z,40.33
2017-11-04T12:13:18.780Z,38.50
2017-11-04T12:15:46.450Z,33.93
2017-11-04T12:18:14.108Z,38.23
2017-11-04T12:20:41.726Z,32.33
2017-11-04T12:23:09.337Z,37.53
2017-11-04T12:25:36.994Z,37.77
2017-11-04T12:28:04.659Z,37.33
2017-11-04T12:30:32.280Z,29.80
2017-11-04T12:32:59.877Z,31.77
2017-11-04T12:35:27.764Z,35.53
2017-11-04T12:37:56.237Z,37.30
2017-11-04T12:40:23.896Z,32.03
2017-11-04T12:42:51.519Z,41.80
2017-11-04T12:45:19.216Z,40.67
2017-11-04T12:47:46.833Z,33.10
2017-11-04T12:50:14.425Z,36.07
2017-11-04T12:52:42.113Z,37.13
2017-11-04T12:55:10.469Z,36.80
2017-11-04T12:57:38.157Z,32.73
2017-11-04T13:00:05.817Z,37.60
2017-11-04T13:02:33.485Z,38.70
2017-11-04T13:05:01.138Z,33.23
2017-11-04T13:07:28.748Z,31.90
2017-11-04T13:09:56.374Z,30.40
2017-11-04T13:12:24.757Z,32.27
2017-11-04T13:14:53.116Z,35.80
2017-11-04T13:17:20.784Z,27.90
2017-11-04T13:19:48.449Z,30.10
2017-11-04T13:22:16.040Z,29.53
2017-11-04T13:24:44.425Z,28.53
2017-11-04T13:27:12.053Z,29.60
2017-11-04T13:29:39.668Z,29.87
2017-11-04T13:32:07.252Z,32.17
2017-11-04T13:34:34.879Z,30.40
2017-11-04T13:37:02.513Z,31.60
2017-11-04T13:39:30.985Z,30.30
2017-11-04T13:41:58.653Z,38.70
2017-11-04T13:44:26.308Z,34.47
2017-11-04T13:46:53.900Z,35.23
2017-11-04T13:49:22.272Z,30.83
2017-11-04T13:51:50.740Z,30.47
2017-11-04T13:54:18.376Z,33.93
2017-11-04T13:56:46.056Z,36.93
2017-11-04T13:59:13.734Z,28.80
2017-11-04T14:01:42.200Z,31.40
2017-11-04T14:04:10.589Z,28.67
2017-11-04T14:06:38.243Z,29.53
2017-11-04T14:09:05.838Z,28.30
2017-11-04T14:11:33.480Z,31.13
2017-11-04T14:14:01.073Z,30.50
2017-11-04T14:16:28.806Z,42.63
2017-11-04T14:18:57.276Z,31.60
2017-11-04T14:21:24.889Z,34.57
2017-11-04T14:23:52.504Z,28.70
2017-11-04T14:26:20.107Z,34.23
2017-11-04T14:28:47.701Z,34.70
2017-11-04T14:31:15.325Z,36.27
2017-11-04T14:33:42.925Z,32.93
2017-11-04T14:36:10.536Z,35.30
2017-11-04T14:38:38.920Z,30.10
2017-11-04T14:41:07.375Z,30.83
2017-11-04T14:43:35.048Z,35.97
2017-11-04T14:46:03.409Z,70.83
2017-11-04T14:48:31.084Z,30.60
2017-11-04T14:50:58.681Z,38.00
2017-11-04T14:53:26.293Z,33.17
2017-11-04T14:55:53.897Z,39.33
2017-11-04T14:58:21.509Z,31.43
2017-11-04T15:00:49.110Z,34.33
2017-11-04T15:03:17.485Z,39.63
2017-11-04T15:05:45.845Z,34.50
2017-11-04T15:08:13.491Z,41.33
2017-11-04T15:10:41.085Z,36.33
2017-11-04T15:13:09.449Z,32.33
2017-11-04T15:15:37.059Z,31.97
2017-11-04T15:18:04.643Z,36.33
2017-11-04T15:20:32.265Z,32.00
2017-11-04T15:23:00.636Z,26.57
2017-11-04T15:25:29.017Z,29.67
2017-11-04T15:27:57.457Z,35.43
2017-11-04T15:30:25.077Z,32.67
2017-11-04T15:32:52.709Z,34.40
2017-11-04T15:35:21.185Z,33.87
2017-11-04T15:37:48.785Z,32.87
2017-11-04T15:40:16.410Z,34.67
2017-11-04T15:42:44.893Z,40.73
2017-11-04T15:45:12.533Z,36.40
2017-11-04T15:47:40.135Z,43.37
2017-11-04T15:50:08.492Z,43.43
2017-11-04T15:52:36.162Z,44.33
2017-11-04T15:55:03.757Z,46.00
2017-11-04T15:57:31.381Z,38.13
2017-11-04T15:59:59.045Z,37.00
2017-11-04T16:02:26.659Z,42.27
2017-11-04T16:04:54.253Z,43.13
2017-11-04T16:07:21.865Z,39.97
2017-11-04T16:09:49.464Z,35.80
2017-11-04T16:12:17.089Z,42.60
2017-11-04T16:14:44.718Z,38.67
2017-11-04T16:17:12.341Z,49.73
2017-11-04T16:19:39.932Z,64.47
2017-11-04T16:22:07.602Z,71.40
2017-11-04T16:24:35.219Z,74.50
2017-11-04T16:27:02.834Z,45.87
2017-11-04T16:29:31.221Z,100.73
2017-11-04T16:31:59.680Z,44.17
2017-11-04T16:34:27.296Z,46.90
2017-11-04T16:36:54.904Z,46.63
2017-11-04T16:39:22.573Z,58.37
2017-11-04T16:41:50.237Z,53.67
2017-11-04T16:44:17.854Z,46.70
2017-11-04T16:46:45.445Z,50.93
2017-11-04T16:49:13.848Z,45.60
2017-11-04T16:51:42.201Z,44.90
2017-11-04T16:54:09.837Z,41.00
2017-11-04T16:56:37.545Z,46.40
2017-11-04T16:59:05.138Z,47.23
2017-11-04T17:01:32.771Z,47.73
2017-11-04T17:04:01.145Z,51.20
2017-11-04T17:06:28.808Z,46.70
2017-11-04T17:08:56.477Z,48.63
2017-11-04T17:11:24.855Z,50.80
2017-11-04T17:13:52.449Z,51.37
2017-11-04T17:16:20.064Z,45.33
2017-11-04T17:18:47.662Z,48.07
2017-11-04T17:21:15.292Z,49.47
2017-11-04T17:23:44.604Z,50.00
2017-11-04T17:26:12.256Z,43.20
2017-11-04T17:28:39.920Z,47.73
2017-11-04T17:31:07.589Z,46.73
2017-11-04T17:33:35.176Z,48.53
2017-11-04T17:36:03.591Z,48.40
2017-11-04T17:38:31.176Z,46.90
2017-11-04T17:40:58.764Z,49.87
2017-11-04T17:43:27.236Z,47.30
2017-11-04T17:45:54.830Z,45.60
2017-11-04T17:48:22.444Z,41.70
2017-11-04T17:50:50.120Z,44.10
2017-11-04T17:53:18.513Z,57.50
2017-11-04T17:55:46.877Z,47.07
2017-11-04T17:58:14.501Z,46.07
2017-11-04T18:00:42.102Z,55.90
2017-11-04T18:03:10.586Z,43.90
2017-11-04T18:05:38.256Z,42.00
2017-11-04T18:08:06.639Z,55.37
2017-11-04T18:10:34.996Z,48.10
2017-11-04T18:13:02.627Z,47.87
2017-11-04T18:15:30.336Z,45.40
2017-11-04T18:17:58.807Z,43.27
2017-11-04T18:20:26.421Z,45.10
2017-11-04T18:22:54.013Z,45.10
2017-11-04T18:25:21.628Z,58.70
2017-11-04T18:27:49.988Z,48.87
2017-11-04T18:30:18.376Z,44.93
2017-11-04T18:32:46.728Z,38.00
2017-11-04T18:35:14.401Z,43.03
2017-11-04T18:37:41.997Z,47.00
2017-11-04T18:40:10.157Z,49.77
2017-11-04T18:42:38.513Z,42.30
2017-11-04T18:45:06.131Z,46.80
2017-11-04T18:47:33.749Z,54.50
2017-11-04T18:50:02.222Z,56.93
2017-11-04T18:52:29.886Z,51.07
2017-11-04T18:54:57.520Z,56.10
2017-11-04T18:57:25.141Z,60.30
2017-11-04T18:59:52.764Z,44.30
2017-11-04T19:02:20.376Z,44.33
2017-11-04T19:04:47.988Z,43.60
2017-11-04T19:07:15.604Z,41.07
2017-11-04T19:09:43.196Z,53.67
2017-11-04T19:12:10.815Z,52.57
2017-11-04T19:14:38.404Z,52.53
2017-11-04T19:17:06.017Z,55.80
2017-11-04T19:19:34.376Z,68.27
2017-11-04T19:22:02.036Z,70.87
2017-11-04T19:24:30.232Z,41.60
2017-11-04T19:26:58.613Z,59.30
2017-11-04T19:29:26.973Z,44.97
2017-11-04T19:31:54.606Z,82.23
2017-11-04T19:34:22.191Z,64.40
2017-11-04T19:36:49.776Z,48.27
2017-11-04T19:39:18.245Z,53.13
2017-11-04T19:41:45.838Z,52.27
2017-11-04T19:44:13.457Z,63.50
2017-11-04T19:46:41.044Z,53.00
2017-11-04T19:49:09.429Z,55.77
2017-11-04T19:51:37.788Z,46.80
2017-11-04T19:54:05.407Z,48.83
2017-11-04T19:56:33.107Z,43.53
2017-11-04T19:59:00.772Z,39.67
2017-11-04T20:01:28.432Z,45.97
2017-11-04T20:03:56.092Z,44.70
2017-11-04T20:06:23.689Z,47.60
2017-11-04T20:08:51.290Z,44.60
2017-11-04T20:11:18.910Z,54.93
2017-11-04T20:13:46.512Z,66.30
2017-11-04T20:16:14.218Z,50.67
2017-11-04T20:18:42.581Z,50.17
2017-11-04T20:21:10.206Z,61.63
2017-11-04T20:23:37.796Z,118.13
2017-11-04T20:26:05.408Z,62.50
2017-11-04T20:28:32.996Z,52.17
2017-11-04T20:31:00.613Z,45.67
2017-11-04T20:33:28.973Z,38.93
2017-11-04T20:35:56.599Z,47.17
2017-11-04T20:38:24.188Z,43.37
2017-11-04T20:40:51.800Z,47.57
2017-11-04T20:43:19.429Z,36.87
2017-11-04T20:45:47.088Z,44.83
2017-11-04T20:48:14.752Z,65.13
2017-11-04T20:50:42.346Z,51.47
2017-11-04T20:53:09.961Z,45.17
2017-11-04T20:55:37.628Z,44.73
2017-11-04T20:58:05.293Z,48.10
2017-11-04T21:00:32.961Z,56.60
2017-11-04T21:03:00.620Z,51.60
2017-11-04T21:05:28.280Z,54.43
2017-11-04T21:07:56.656Z,39.37
2017-11-04T21:10:24.323Z,49.90
2017-11-04T21:12:51.934Z,45.60
2017-11-04T21:15:20.476Z,44.13
2017-11-04T21:17:48.134Z,48.50
2017-11-04T21:20:15.724Z,55.77
2017-11-04T21:22:44.076Z,50.23
2017-11-04T21:25:11.801Z,56.37
2017-11-04T21:27:39.387Z,48.63
2017-11-04T21:30:07.061Z,45.83
2017-11-04T21:32:34.748Z,41.33
2017-11-04T21:35:03.207Z,47.57
2017-11-04T21:37:30.806Z,39.77
2017-11-04T21:39:58.421Z,44.20
2017-11-04T21:42:26.017Z,52.13
2017-11-04T21:44:54.401Z,53.33
2017-11-04T21:47:22.768Z,48.37
2017-11-04T21:49:51.148Z,46.40
2017-11-04T21:52:19.509Z,47.47
2017-11-04T21:54:47.139Z,44.97
2017-11-04T21:57:14.841Z,45.57
2017-11-04T21:59:42.427Z,46.23
2017-11-04T22:02:10.799Z,48.80
2017-11-04T22:04:39.148Z,46.00
2017-11-04T22:07:06.821Z,47.70
2017-11-04T22:09:35.181Z,44.10
2017-11-04T22:12:02.860Z,46.33
2017-11-04T22:14:30.452Z,42.03
2017-11-04T22:16:58.073Z,42.23
2017-11-04T22:19:26.441Z,57.87
2017-11-04T22:21:54.133Z,44.70
2017-11-04T22:24:21.801Z,43.73
2017-11-04T22:26:50.180Z,43.80
2017-11-04T22:29:18.550Z,42.50
2017-11-04T22:31:46.170Z,47.93
2017-11-04T22:34:13.766Z,44.80
2017-11-04T22:36:42.169Z,40.77
2017-11-04T22:39:10.530Z,50.70
2017-11-04T22:41:38.193Z,44.53
2017-11-04T22:44:05.856Z,45.27
2017-11-04T22:46:33.449Z,45.43
2017-11-04T22:49:01.837Z,48.03
2017-11-04T22:51:29.465Z,43.23
2017-11-04T22:53:57.129Z,45.73
2017-11-04T22:56:24.793Z,45.30
2017-11-04T22:58:53.174Z,48.30
2017-11-04T23:01:21.528Z,42.03
2017-11-04T23:03:49.154Z,44.90
2017-11-04T23:06:16.744Z,48.47
2017-11-04T23:08:44.437Z,39.67
2017-11-04T23:11:12.028Z,47.23
2017-11-04T23:13:40.416Z,45.47
2017-11-04T23:16:08.036Z,43.70
2017-11-04T23:18:35.624Z,42.90
2017-11-04T23:21:04.013Z,45.73
2017-11-04T23:23:31.609Z,48.10
2017-11-04T23:25:59.219Z,46.00
2017-11-04T23:28:27.585Z,54.47
2017-11-04T23:30:55.247Z,44.37
2017-11-04T23:33:22.841Z,55.07
2017-11-04T23:35:50.457Z,44.27
2017-11-04T23:38:18.132Z,48.93
2017-11-04T23:40:45.793Z,50.33
2017-11-04T23:43:13.389Z,46.33
2017-11-04T23:45:41.016Z,47.90
2017-11-04T23:48:08.619Z,48.20
2017-11-04T23:50:36.237Z,44.37
2017-11-04T23:53:03.861Z,54.20
2017-11-04T23:55:31.568Z,48.60
2017-11-04T23:58:00.763Z,50.73
